Time;durP1;ratioP1;P1;durP2;ratioP2;P2;SDS_P1;SDS_P2;PMS_P1;PMS_P2;Temp;Humidity;BMP_temperature;BMP_pressure;BME280_temperature;BME280_humidity;BME280_pressure;Samples;Min_cycle;Max_cycle;Signal;HPM_P1;HPM_P2
2022/10/15 00:00:24;;;;;;;62.13;27.02;;;;;;;;;;6130182;23;20030;-83
2022/10/15 00:02:50;;;;;;;63.17;25.13;;;;;;;;;;6130390;23;20026;-84
2022/10/15 00:05:16;;;;;;;56.03;24.42;;;;;;;;;;6130214;23;20038;-84
2022/10/15 00:07:43;;;;;;;60.40;25.65;;;;;;;;;;6155465;23;20026;-85
2022/10/15 00:10:09;;;;;;;55.33;24.70;;;;;;;;;;6130622;23;20034;-84
2022/10/15 00:12:35;;;;;;;55.30;26.35;;;;;;;;;;6156970;23;20798;-86
2022/10/15 00:15:02;;;;;;;57.08;25.63;;;;;;;;;;6130411;23;20030;-86
2022/10/15 00:17:28;;;;;;;59.75;26.27;;;;;;;;;;6130073;23;20120;-84
2022/10/15 00:19:54;;;;;;;68.28;27.67;;;;;;;;;;6130203;23;20030;-84
2022/10/15 00:22:21;;;;;;;72.28;28.85;;;;;;;;;;6130883;23;20034;-85
2022/10/15 00:24:47;;;;;;;64.97;27.23;;;;;;;;;;6130458;23;20034;-84
2022/10/15 00:27:14;;;;;;;78.53;29.02;;;;;;;;;;6155492;23;20030;-85
2022/10/15 00:29:40;;;;;;;76.40;31.20;;;;;;;;;;6130076;23;20011;-85
2022/10/15 00:32:06;;;;;;;70.65;29.65;;;;;;;;;;6130006;23;20022;-87
2022/10/15 00:34:33;;;;;;;86.07;29.80;;;;;;;;;;6156904;23;20033;-87
2022/10/15 00:36:59;;;;;;;77.93;30.77;;;;;;;;;;6130154;23;20030;-85
2022/10/15 00:39:25;;;;;;;71.55;29.77;;;;;;;;;;6156196;23;20033;-85
2022/10/15 00:41:51;;;;;;;77.60;29.98;;;;;;;;;;6156683;23;20037;-85
2022/10/15 00:44:21;;;;;;;72.43;30.45;;;;;;;;;;6156556;23;20034;-84
2022/10/15 00:46:48;;;;;;;68.10;29.80;;;;;;;;;;6155852;23;20037;-84
2022/10/15 00:49:27;;;;;;;76.75;30.88;;;;;;;;;;6130222;23;20026;-84
2022/10/15 00:51:59;;;;;;;64.78;27.33;;;;;;;;;;6130468;23;20030;-85
2022/10/15 00:54:26;;;;;;;76.40;30.05;;;;;;;;;;6130633;23;20037;-84
2022/10/15 00:56:53;;;;;;;77.45;30.63;;;;;;;;;;6156593;23;20470;-84
2022/10/15 00:59:21;;;;;;;85.30;30.25;;;;;;;;;;6156516;23;20093;-84
2022/10/15 01:01:47;;;;;;;82.18;30.15;;;;;;;;;;6129928;23;20036;-85
2022/10/15 01:04:14;;;;;;;79.40;29.55;;;;;;;;;;6156161;23;20632;-85
2022/10/15 01:06:40;;;;;;;81.50;30.98;;;;;;;;;;6129965;23;20828;-84
2022/10/15 01:09:06;;;;;;;76.45;30.98;;;;;;;;;;6156746;23;20030;-85
2022/10/15 01:11:32;;;;;;;86.05;32.17;;;;;;;;;;6130279;23;20115;-87
2022/10/15 01:14:05;;;;;;;84.53;31.50;;;;;;;;;;6130051;23;20030;-87
2022/10/15 01:16:31;;;;;;;84.22;31.70;;;;;;;;;;6156521;23;20034;-85
2022/10/15 01:19:00;;;;;;;93.20;32.47;;;;;;;;;;6156459;23;20420;-86
2022/10/15 01:21:32;;;;;;;87.13;30.75;;;;;;;;;;6130824;23;20037;-85
2022/10/15 01:24:01;;;;;;;78.68;30.73;;;;;;;;;;6129788;23;20036;-84
2022/10/15 01:26:30;;;;;;;85.20;32.38;;;;;;;;;;6130354;23;20479;-86
2022/10/15 01:28:57;;;;;;;84.65;31.70;;;;;;;;;;6156178;23;20033;-85
2022/10/15 01:31:23;;;;;;;77.93;30.70;;;;;;;;;;6129882;23;20028;-85
2022/10/15 01:34:01;;;;;;;75.10;29.70;;;;;;;;;;6156672;23;20037;-85
2022/10/15 01:36:35;;;;;;;83.22;30.35;;;;;;;;;;6129881;23;20156;-85
2022/10/15 01:39:13;;;;;;;67.25;28.42;;;;;;;;;;6156319;23;20026;-85
2022/10/15 01:41:39;;;;;;;72.78;28.38;;;;;;;;;;6156279;23;20033;-84
2022/10/15 01:44:12;;;;;;;74.57;28.65;;;;;;;;;;6129945;23;20029;-84
2022/10/15 01:46:41;;;;;;;69.13;28.27;;;;;;;;;;6130841;23;20030;-84
2022/10/15 01:49:08;;;;;;;77.85;29.08;;;;;;;;;;6129788;23;20033;-84
2022/10/15 01:51:36;;;;;;;83.47;30.30;;;;;;;;;;6130270;23;20006;-84
2022/10/15 01:54:04;;;;;;;80.68;30.65;;;;;;;;;;6129656;23;20026;-86
2022/10/15 01:56:31;;;;;;;83.82;29.20;;;;;;;;;;6130453;23;20041;-85
2022/10/15 01:58:58;;;;;;;76.55;29.88;;;;;;;;;;6156405;23;20057;-84
2022/10/15 02:01:24;;;;;;;100.15;30.20;;;;;;;;;;6130373;23;20033;-85
2022/10/15 02:03:51;;;;;;;77.03;28.35;;;;;;;;;;6155443;23;20057;-84
2022/10/15 02:06:33;;;;;;;97.75;30.42;;;;;;;;;;6130580;23;20097;-84
2022/10/15 02:09:19;;;;;;;86.18;27.90;;;;;;;;;;6156209;23;20034;-85
2022/10/15 02:11:49;;;;;;;61.30;25.65;;;;;;;;;;6056711;23;20030;-86
2022/10/15 02:14:18;;;;;;;72.38;27.58;;;;;;;;;;6129703;23;20026;-84
2022/10/15 02:17:01;;;;;;;70.72;27.17;;;;;;;;;;6129702;23;20517;-85
2022/10/15 02:19:28;;;;;;;77.72;27.33;;;;;;;;;;6156029;23;20184;-84
2022/10/15 02:22:00;;;;;;;87.05;28.90;;;;;;;;;;6156216;23;20081;-84
2022/10/15 02:24:35;;;;;;;79.28;29.83;;;;;;;;;;6155491;23;20006;-87
2022/10/15 02:27:02;;;;;;;76.35;28.42;;;;;;;;;;6156547;23;20081;-85
2022/10/15 02:29:31;;;;;;;88.68;30.02;;;;;;;;;;6155385;23;20034;-88
2022/10/15 02:31:59;;;;;;;95.43;32.72;;;;;;;;;;6153685;23;20901;-85
2022/10/15 02:34:27;;;;;;;105.55;33.40;;;;;;;;;;6128035;23;20018;-87
2022/10/15 02:36:53;;;;;;;105.03;33.47;;;;;;;;;;6155641;23;20030;-87
2022/10/15 02:39:23;;;;;;;106.70;33.33;;;;;;;;;;6155478;23;20034;-84
2022/10/15 02:41:50;;;;;;;117.50;34.97;;;;;;;;;;6155635;23;20026;-85
2022/10/15 02:44:16;;;;;;;105.80;34.05;;;;;;;;;;6155320;23;20038;-85
2022/10/15 02:46:43;;;;;;;106.43;35.33;;;;;;;;;;6128709;23;20033;-85
2022/10/15 02:49:09;;;;;;;113.60;35.88;;;;;;;;;;6155200;23;20026;-85
2022/10/15 02:51:35;;;;;;;109.63;34.75;;;;;;;;;;6155530;23;20034;-85
2022/10/15 02:54:03;;;;;;;108.63;33.17;;;;;;;;;;6129220;23;20030;-84
2022/10/15 02:56:29;;;;;;;116.65;34.92;;;;;;;;;;6129672;23;20085;-84
2022/10/15 02:58:55;;;;;;;109.28;35.75;;;;;;;;;;6155446;23;20034;-84
2022/10/15 03:01:21;;;;;;;114.05;36.08;;;;;;;;;;6129301;23;20072;-84
2022/10/15 03:03:48;;;;;;;119.18;37.03;;;;;;;;;;6156306;23;20089;-85
2022/10/15 03:06:14;;;;;;;102.97;32.40;;;;;;;;;;6156211;23;20062;-85
2022/10/15 03:08:41;;;;;;;117.38;35.58;;;;;;;;;;6148093;23;20036;-86
2022/10/15 03:11:07;;;;;;;103.22;32.33;;;;;;;;;;6183610;23;20029;-85
2022/10/15 03:13:34;;;;;;;112.90;33.55;;;;;;;;;;6184744;23;20025;-82
2022/10/15 03:16:03;;;;;;;116.18;34.00;;;;;;;;;;6187959;23;20065;-84
2022/10/15 03:18:29;;;;;;;110.00;34.92;;;;;;;;;;6186891;23;20461;-81
2022/10/15 03:20:56;;;;;;;103.00;32.55;;;;;;;;;;6187325;23;20021;-81
2022/10/15 03:23:22;;;;;;;83.07;30.23;;;;;;;;;;6187799;23;20025;-83
2022/10/15 03:25:48;;;;;;;109.75;31.45;;;;;;;;;;6185022;23;20111;-83
2022/10/15 03:28:15;;;;;;;93.63;30.00;;;;;;;;;;6185420;23;20033;-84
2022/10/15 03:30:42;;;;;;;115.35;32.88;;;;;;;;;;6183812;23;20494;-83
2022/10/15 03:33:08;;;;;;;88.32;31.10;;;;;;;;;;6183915;23;20088;-85
2022/10/15 03:35:35;;;;;;;121.00;33.05;;;;;;;;;;6185624;23;20025;-87
2022/10/15 03:38:01;;;;;;;93.40;30.52;;;;;;;;;;6185993;23;20036;-83
2022/10/15 03:40:27;;;;;;;79.90;29.52;;;;;;;;;;6184535;23;20032;-83
2022/10/15 03:42:55;;;;;;;84.32;29.83;;;;;;;;;;6185433;23;20033;-82
2022/10/15 03:45:22;;;;;;;95.43;29.65;;;;;;;;;;6185717;23;20029;-83
2022/10/15 03:47:48;;;;;;;110.15;29.25;;;;;;;;;;6185886;23;20514;-82
2022/10/15 03:50:14;;;;;;;90.97;31.00;;;;;;;;;;6185085;23;20478;-83
2022/10/15 03:52:41;;;;;;;129.15;35.58;;;;;;;;;;6184018;23;20535;-83
2022/10/15 03:55:08;;;;;;;93.70;31.48;;;;;;;;;;6184931;23;20030;-84
2022/10/15 03:57:35;;;;;;;175.48;33.72;;;;;;;;;;6184123;23;20093;-83
2022/10/15 04:00:01;;;;;;;88.45;29.25;;;;;;;;;;6186417;23;20025;-85
2022/10/15 04:02:30;;;;;;;62.58;26.40;;;;;;;;;;6186637;23;20107;-83
2022/10/15 04:04:56;;;;;;;121.95;30.80;;;;;;;;;;6185348;23;20018;-83
2022/10/15 04:07:23;;;;;;;113.63;31.33;;;;;;;;;;6185318;23;20032;-83
2022/10/15 04:09:49;;;;;;;114.78;32.72;;;;;;;;;;6160318;23;20037;-84
2022/10/15 04:12:15;;;;;;;91.80;30.23;;;;;;;;;;6156182;23;20026;-83
2022/10/15 04:14:42;;;;;;;79.55;29.13;;;;;;;;;;6130478;23;20030;-84
2022/10/15 04:17:08;;;;;;;94.80;30.13;;;;;;;;;;6156046;23;20430;-85
2022/10/15 04:19:35;;;;;;;76.57;29.40;;;;;;;;;;6155855;23;20446;-84
2022/10/15 04:22:02;;;;;;;145.88;36.92;;;;;;;;;;6130734;23;20034;-83
2022/10/15 04:24:28;;;;;;;135.27;37.28;;;;;;;;;;6130379;23;20030;-83
2022/10/15 04:26:54;;;;;;;115.03;34.47;;;;;;;;;;6130281;23;20053;-83
2022/10/15 04:29:21;;;;;;;114.60;33.63;;;;;;;;;;6156622;23;20034;-86
2022/10/15 04:31:47;;;;;;;122.03;32.90;;;;;;;;;;6129805;23;20466;-86
2022/10/15 04:34:13;;;;;;;87.10;28.90;;;;;;;;;;6130743;23;20510;-85
2022/10/15 04:36:39;;;;;;;92.03;31.88;;;;;;;;;;6156875;23;20030;-84
2022/10/15 04:39:06;;;;;;;95.63;30.30;;;;;;;;;;6155873;23;20031;-83
2022/10/15 04:41:37;;;;;;;107.03;33.72;;;;;;;;;;6156254;23;20030;-83
2022/10/15 04:44:03;;;;;;;115.32;38.10;;;;;;;;;;6156513;23;20411;-84
2022/10/15 04:46:30;;;;;;;106.78;35.80;;;;;;;;;;6156609;23;20901;-84
2022/10/15 04:48:57;;;;;;;144.60;41.45;;;;;;;;;;6155957;23;20026;-83
2022/10/15 04:51:24;;;;;;;142.55;40.92;;;;;;;;;;6130755;23;20030;-84
2022/10/15 04:53:51;;;;;;;144.52;39.97;;;;;;;;;;6155964;23;20037;-83
2022/10/15 04:56:18;;;;;;;151.65;42.75;;;;;;;;;;6156348;23;20014;-83
2022/10/15 04:58:45;;;;;;;135.38;39.47;;;;;;;;;;6155314;23;20853;-84
2022/10/15 05:01:13;;;;;;;159.95;41.88;;;;;;;;;;6129814;23;20588;-84
2022/10/15 05:03:40;;;;;;;176.77;45.30;;;;;;;;;;6129369;23;20065;-85
2022/10/15 05:06:11;;;;;;;157.82;43.88;;;;;;;;;;6130232;23;20029;-85
2022/10/15 05:08:40;;;;;;;159.88;43.08;;;;;;;;;;6155031;23;20026;-84
2022/10/15 05:11:07;;;;;;;151.50;42.80;;;;;;;;;;6155171;23;20044;-85
2022/10/15 05:13:34;;;;;;;177.90;46.67;;;;;;;;;;6156729;23;20029;-85
2022/10/15 05:16:16;;;;;;;178.82;44.13;;;;;;;;;;6155405;23;20105;-85
2022/10/15 05:18:44;;;;;;;162.77;44.15;;;;;;;;;;6129290;23;20030;-85
2022/10/15 05:21:11;;;;;;;176.55;44.47;;;;;;;;;;6156165;23;20562;-85
2022/10/15 05:23:38;;;;;;;156.48;44.58;;;;;;;;;;6129224;23;20034;-87
2022/10/15 05:26:09;;;;;;;150.23;44.25;;;;;;;;;;6129705;23;20026;-85
2022/10/15 05:28:35;;;;;;;179.07;45.50;;;;;;;;;;6154925;23;20022;-85
2022/10/15 05:31:12;;;;;;;169.13;44.42;;;;;;;;;;6129080;23;20534;-86
2022/10/15 05:33:44;;;;;;;181.32;46.40;;;;;;;;;;6131223;23;20093;-85
2022/10/15 05:36:16;;;;;;;208.98;49.65;;;;;;;;;;6130095;23;20052;-86
2022/10/15 05:38:43;;;;;;;204.52;50.38;;;;;;;;;;6129272;23;20030;-86
2022/10/15 05:41:09;;;;;;;209.80;52.42;;;;;;;;;;6156138;23;20030;-86
2022/10/15 05:43:36;;;;;;;214.25;52.10;;;;;;;;;;6155870;23;20040;-85
2022/10/15 05:46:06;;;;;;;249.85;54.38;;;;;;;;;;6155953;23;20036;-84
2022/10/15 05:48:33;;;;;;;240.20;54.40;;;;;;;;;;6129433;23;20034;-85
2022/10/15 05:51:03;;;;;;;250.35;53.45;;;;;;;;;;6155738;23;20033;-85
2022/10/15 05:53:30;;;;;;;240.05;51.45;;;;;;;;;;6129879;23;20899;-85
2022/10/15 05:55:57;;;;;;;244.05;51.15;;;;;;;;;;6130245;23;20364;-84
2022/10/15 05:58:24;;;;;;;255.48;51.45;;;;;;;;;;6154901;23;20030;-86
2022/10/15 06:00:54;;;;;;;281.70;52.38;;;;;;;;;;6130596;23;20136;-82
2022/10/15 06:03:20;;;;;;;278.13;50.80;;;;;;;;;;6158233;23;20037;-82
2022/10/15 06:05:46;;;;;;;261.45;49.45;;;;;;;;;;6156639;23;20025;-83
2022/10/15 06:08:13;;;;;;;263.30;50.63;;;;;;;;;;6156263;23;20037;-83
2022/10/15 06:10:39;;;;;;;296.40;51.50;;;;;;;;;;6131426;23;20065;-84
2022/10/15 06:13:05;;;;;;;283.25;50.45;;;;;;;;;;6156535;23;20030;-83
2022/10/15 06:15:32;;;;;;;220.88;45.63;;;;;;;;;;6131013;23;20018;-84
2022/10/15 06:17:59;;;;;;;240.35;45.90;;;;;;;;;;6157553;23;20487;-82
2022/10/15 06:20:25;;;;;;;263.20;47.25;;;;;;;;;;6130892;23;20026;-83
2022/10/15 06:22:55;;;;;;;210.55;45.10;;;;;;;;;;6132670;23;20041;-84
2022/10/15 06:25:21;;;;;;;221.52;45.33;;;;;;;;;;6156788;23;20056;-83
2022/10/15 06:27:48;;;;;;;210.48;43.40;;;;;;;;;;6157097;23;20030;-83
2022/10/15 06:30:14;;;;;;;222.07;42.08;;;;;;;;;;6130148;23;20034;-83
2022/10/15 06:32:45;;;;;;;230.32;43.58;;;;;;;;;;6129264;23;20843;-83
2022/10/15 06:35:12;;;;;;;216.20;40.25;;;;;;;;;;6157939;23;20029;-83
2022/10/15 06:37:38;;;;;;;214.25;41.33;;;;;;;;;;6156632;23;20038;-84
2022/10/15 06:40:04;;;;;;;192.52;38.80;;;;;;;;;;6130979;23;20030;-83
2022/10/15 06:42:31;;;;;;;213.65;38.90;;;;;;;;;;6130186;23;20006;-82
2022/10/15 06:44:57;;;;;;;231.80;40.40;;;;;;;;;;6131158;23;20030;-83
2022/10/15 06:47:23;;;;;;;219.50;40.28;;;;;;;;;;6129983;23;20042;-83
2022/10/15 06:49:51;;;;;;;197.38;39.33;;;;;;;;;;6131135;23;20039;-83
2022/10/15 06:52:18;;;;;;;198.93;38.33;;;;;;;;;;6156378;23;20049;-82
2022/10/15 06:54:44;;;;;;;183.55;36.75;;;;;;;;;;6157570;23;20447;-80
2022/10/15 06:57:11;;;;;;;159.00;34.55;;;;;;;;;;6130436;23;20034;-81
2022/10/15 06:59:37;;;;;;;182.35;35.03;;;;;;;;;;6130677;23;20406;-83
2022/10/15 07:02:10;;;;;;;155.15;33.40;;;;;;;;;;6130957;23;20033;-82
2022/10/15 07:04:36;;;;;;;163.00;31.48;;;;;;;;;;6130054;23;20014;-84
2022/10/15 07:07:02;;;;;;;142.77;31.92;;;;;;;;;;6157703;23;20026;-84
2022/10/15 07:09:28;;;;;;;124.85;29.73;;;;;;;;;;6157510;23;20121;-85
2022/10/15 07:11:55;;;;;;;116.88;28.75;;;;;;;;;;6158332;23;20034;-85
2022/10/15 07:14:21;;;;;;;133.60;30.23;;;;;;;;;;6158664;23;20026;-81
2022/10/15 07:16:47;;;;;;;110.88;28.15;;;;;;;;;;6158964;23;20041;-81
2022/10/15 07:19:14;;;;;;;111.97;28.38;;;;;;;;;;6132768;23;20026;-82
2022/10/15 07:21:40;;;;;;;98.90;26.27;;;;;;;;;;6131212;23;20022;-83
2022/10/15 07:24:06;;;;;;;128.35;27.33;;;;;;;;;;6131991;23;20033;-82
2022/10/15 07:26:33;;;;;;;93.68;25.75;;;;;;;;;;6129693;23;20026;-83
2022/10/15 07:28:59;;;;;;;88.30;23.60;;;;;;;;;;6131406;23;20496;-84
2022/10/15 07:31:26;;;;;;;116.25;26.67;;;;;;;;;;6130285;23;20033;-82
2022/10/15 07:33:52;;;;;;;88.68;24.02;;;;;;;;;;6131880;23;20459;-82
2022/10/15 07:36:19;;;;;;;77.03;23.27;;;;;;;;;;6156187;23;20036;-82
2022/10/15 07:38:46;;;;;;;67.00;21.50;;;;;;;;;;6132039;23;20022;-82
2022/10/15 07:41:12;;;;;;;70.05;22.35;;;;;;;;;;6159156;23;20026;-82
2022/10/15 07:43:39;;;;;;;77.55;22.00;;;;;;;;;;6134951;23;20022;-80
2022/10/15 07:46:05;;;;;;;65.47;21.27;;;;;;;;;;6160002;23;20329;-80
2022/10/15 07:48:31;;;;;;;62.25;21.13;;;;;;;;;;6131502;23;20498;-82
2022/10/15 07:50:59;;;;;;;63.55;20.35;;;;;;;;;;6157761;23;20030;-81
2022/10/15 07:53:25;;;;;;;58.05;20.00;;;;;;;;;;6133513;23;20573;-80
2022/10/15 07:55:52;;;;;;;61.50;19.80;;;;;;;;;;6159279;23;20786;-81
2022/10/15 07:58:18;;;;;;;57.42;19.65;;;;;;;;;;6158821;23;20026;-82
2022/10/15 08:00:45;;;;;;;57.25;19.33;;;;;;;;;;6159162;23;20030;-82
2022/10/15 08:03:11;;;;;;;55.13;19.75;;;;;;;;;;6158833;23;20033;-81
2022/10/15 08:05:37;;;;;;;47.70;18.15;;;;;;;;;;6133359;23;20021;-81
2022/10/15 08:08:03;;;;;;;45.47;17.63;;;;;;;;;;6132257;23;20607;-83
2022/10/15 08:10:30;;;;;;;43.15;16.92;;;;;;;;;;6132160;23;20113;-82
2022/10/15 08:12:56;;;;;;;39.97;16.77;;;;;;;;;;6158608;23;20706;-80
2022/10/15 08:15:22;;;;;;;42.95;16.65;;;;;;;;;;6133449;23;20105;-80
2022/10/15 08:17:49;;;;;;;35.05;16.30;;;;;;;;;;6132121;23;20026;-82
2022/10/15 08:20:15;;;;;;;38.45;15.95;;;;;;;;;;6132003;23;20026;-80
2022/10/15 08:22:41;;;;;;;44.28;15.27;;;;;;;;;;6107558;23;20074;-81
2022/10/15 08:25:08;;;;;;;39.28;15.98;;;;;;;;;;6132931;23;20026;-82
2022/10/15 08:27:35;;;;;;;41.65;16.17;;;;;;;;;;6132604;23;20041;-80
2022/10/15 08:30:01;;;;;;;41.92;15.98;;;;;;;;;;6131679;23;20108;-80
2022/10/15 08:32:27;;;;;;;40.97;15.70;;;;;;;;;;6156721;23;20467;-80
2022/10/15 08:34:54;;;;;;;38.05;16.77;;;;;;;;;;6131789;23;20034;-79
2022/10/15 08:37:20;;;;;;;35.25;16.08;;;;;;;;;;6158829;23;20033;-82
2022/10/15 08:39:46;;;;;;;39.63;15.68;;;;;;;;;;6132951;23;20025;-82
2022/10/15 08:42:28;;;;;;;37.25;15.98;;;;;;;;;;6158301;23;20012;-81
2022/10/15 08:44:57;;;;;;;37.35;15.52;;;;;;;;;;6133182;23;20041;-79
2022/10/15 08:47:29;;;;;;;29.77;14.13;;;;;;;;;;6159206;23;20034;-81
2022/10/15 08:49:57;;;;;;;35.60;15.70;;;;;;;;;;6159848;23;20030;-81
2022/10/15 08:52:24;;;;;;;36.88;18.05;;;;;;;;;;6160077;23;20129;-81
2022/10/15 08:54:51;;;;;;;28.35;14.45;;;;;;;;;;6159337;23;20010;-82
2022/10/15 08:57:36;;;;;;;30.67;14.38;;;;;;;;;;6158936;23;20022;-82
2022/10/15 09:00:20;;;;;;;28.98;14.10;;;;;;;;;;6159249;23;20037;-80
2022/10/15 09:02:53;;;;;;;30.23;14.32;;;;;;;;;;6158562;23;20029;-82
2022/10/15 09:05:33;;;;;;;25.73;12.85;;;;;;;;;;6159300;23;20057;-82
2022/10/15 09:08:18;;;;;;;26.63;13.38;;;;;;;;;;6132008;23;20073;-80
2022/10/15 09:10:44;;;;;;;27.80;13.63;;;;;;;;;;6158237;23;20518;-81
2022/10/15 09:13:12;;;;;;;27.30;14.27;;;;;;;;;;6159457;23;20487;-82
2022/10/15 09:15:53;;;;;;;25.52;12.77;;;;;;;;;;6159562;23;20010;-79
2022/10/15 09:18:24;;;;;;;27.48;13.55;;;;;;;;;;6159606;23;20029;-80
2022/10/15 09:20:50;;;;;;;;;;;;;;;;;;6133437;23;20033;-81
2022/10/15 09:23:18;;;;;;;28.17;14.27;;;;;;;;;;6157449;23;47329;-81
2022/10/15 09:25:48;;;;;;;27.20;13.68;;;;;;;;;;6158705;23;20865;-82
2022/10/15 09:28:17;;;;;;;24.77;13.63;;;;;;;;;;6157960;23;20030;-81
2022/10/15 09:30:49;;;;;;;27.65;14.48;;;;;;;;;;6157087;23;20093;-83
2022/10/15 09:33:15;;;;;;;24.63;13.73;;;;;;;;;;6132568;23;20037;-82
2022/10/15 09:35:59;;;;;;;24.35;13.77;;;;;;;;;;6158028;23;20041;-82
2022/10/15 09:38:43;;;;;;;26.75;14.57;;;;;;;;;;6157855;23;20025;-81
2022/10/15 09:41:15;;;;;;;26.02;13.57;;;;;;;;;;6155987;23;20029;-82
2022/10/15 09:43:43;;;;;;;23.70;12.90;;;;;;;;;;6155180;23;20033;-82
2022/10/15 09:46:09;;;;;;;22.27;13.35;;;;;;;;;;6129043;23;20543;-80
2022/10/15 09:48:42;;;;;;;22.58;13.20;;;;;;;;;;6156010;23;20025;-81
2022/10/15 09:51:18;;;;;;;21.17;12.23;;;;;;;;;;6129702;23;20049;-82
2022/10/15 09:53:51;;;;;;;20.25;12.27;;;;;;;;;;6155707;23;20021;-82
2022/10/15 09:56:18;;;;;;;22.20;12.48;;;;;;;;;;6131467;23;20137;-83
2022/10/15 09:58:50;;;;;;;19.63;11.90;;;;;;;;;;6156872;23;20028;-80
2022/10/15 10:01:27;;;;;;;23.77;11.75;;;;;;;;;;6129224;23;20085;-81
2022/10/15 10:04:12;;;;;;;20.90;10.85;;;;;;;;;;6156696;23;20487;-82
2022/10/15 10:06:45;;;;;;;18.85;10.93;;;;;;;;;;6158175;23;20029;-82
2022/10/15 10:09:15;;;;;;;15.95;9.00;;;;;;;;;;6162818;23;20080;-82
2022/10/15 10:11:47;;;;;;;16.05;9.75;;;;;;;;;;6188689;23;20037;-81
2022/10/15 10:14:21;;;;;;;18.83;9.63;;;;;;;;;;6188388;23;20029;-80
2022/10/15 10:17:03;;;;;;;19.52;11.02;;;;;;;;;;6189459;23;20026;-80
2022/10/15 10:19:30;;;;;;;21.90;11.27;;;;;;;;;;6187945;23;20105;-81
2022/10/15 10:22:12;;;;;;;21.23;10.88;;;;;;;;;;6189069;23;20037;-80
2022/10/15 10:24:38;;;;;;;20.60;10.38;;;;;;;;;;6191372;23;20029;-81
2022/10/15 10:27:16;;;;;;;22.52;9.73;;;;;;;;;;6191032;23;20037;-80
2022/10/15 10:29:46;;;;;;;19.38;9.60;;;;;;;;;;6187240;23;20017;-80
2022/10/15 10:32:20;;;;;;;21.50;9.88;;;;;;;;;;6190111;23;20034;-81
2022/10/15 10:34:47;;;;;;;18.60;9.30;;;;;;;;;;6189556;23;20024;-82
2022/10/15 10:37:18;;;;;;;18.00;8.95;;;;;;;;;;6186690;23;20026;-80
2022/10/15 10:39:44;;;;;;;19.33;9.93;;;;;;;;;;6186023;23;20021;-80
2022/10/15 10:42:18;;;;;;;18.25;9.18;;;;;;;;;;6185820;23;20029;-82
2022/10/15 10:44:45;;;;;;;19.85;8.73;;;;;;;;;;6180970;23;20029;-82
2022/10/15 10:47:12;;;;;;;15.25;7.90;;;;;;;;;;6185317;23;20029;-83
2022/10/15 10:49:39;;;;;;;15.40;7.95;;;;;;;;;;6182887;23;20031;-84
2022/10/15 10:52:17;;;;;;;18.00;8.57;;;;;;;;;;6183806;23;20029;-82
2022/10/15 10:54:46;;;;;;;15.25;7.68;;;;;;;;;;6186174;23;20864;-82
2022/10/15 10:57:14;;;;;;;16.52;8.32;;;;;;;;;;6185802;23;20018;-82
2022/10/15 10:59:48;;;;;;;17.60;8.52;;;;;;;;;;6187246;23;20030;-81
2022/10/15 11:02:14;;;;;;;18.25;8.80;;;;;;;;;;6189424;23;20032;-81
2022/10/15 11:04:41;;;;;;;14.73;7.65;;;;;;;;;;6188098;23;20014;-80
2022/10/15 11:07:07;;;;;;;16.13;7.95;;;;;;;;;;6188538;23;20017;-81
2022/10/15 11:09:46;;;;;;;17.77;9.05;;;;;;;;;;6167446;23;20078;-80
2022/10/15 11:12:27;;;;;;;14.65;7.45;;;;;;;;;;6135974;23;20030;-81
2022/10/15 11:15:02;;;;;;;18.33;7.82;;;;;;;;;;6160218;23;20029;-80
2022/10/15 11:17:41;;;;;;;16.90;7.90;;;;;;;;;;6135753;23;20368;-79
2022/10/15 11:20:18;;;;;;;14.23;7.50;;;;;;;;;;6159247;23;20026;-80
2022/10/15 11:23:10;;;;;;;12.63;6.65;;;;;;;;;;6138302;23;20061;-80
2022/10/15 11:25:37;;;;;;;16.23;6.93;;;;;;;;;;6135508;23;20034;-80
2022/10/15 11:28:06;;;;;;;13.30;6.68;;;;;;;;;;6136149;23;20033;-80
2022/10/15 11:30:32;;;;;;;15.43;6.45;;;;;;;;;;6135523;23;20037;-80
2022/10/15 11:32:59;;;;;;;14.32;7.00;;;;;;;;;;6160868;23;20074;-80
2022/10/15 11:35:37;;;;;;;12.88;6.57;;;;;;;;;;6162843;23;20026;-80
2022/10/15 11:38:18;;;;;;;16.08;7.18;;;;;;;;;;6161187;23;20041;-80
2022/10/15 11:41:03;;;;;;;14.50;6.78;;;;;;;;;;6160923;23;20026;-80
2022/10/15 11:43:32;;;;;;;13.55;6.68;;;;;;;;;;6133947;23;20725;-81
2022/10/15 11:46:02;;;;;;;12.80;6.53;;;;;;;;;;6154613;23;20026;-80
2022/10/15 11:48:47;;;;;;;15.85;6.50;;;;;;;;;;6155148;23;20431;-81
2022/10/15 11:51:21;;;;;;;11.85;6.20;;;;;;;;;;6153242;23;20791;-80
2022/10/15 11:53:53;;;;;;;13.05;6.30;;;;;;;;;;6128127;23;20037;-80
2022/10/15 11:56:25;;;;;;;13.15;6.78;;;;;;;;;;6154788;23;20022;-80
2022/10/15 11:59:18;;;;;;;12.52;6.47;;;;;;;;;;6152752;23;20816;-81
2022/10/15 12:01:47;;;;;;;12.32;6.47;;;;;;;;;;6149718;23;20034;-81
2022/10/15 12:04:16;;;;;;;12.05;6.30;;;;;;;;;;6130141;23;20026;-81
2022/10/15 12:06:46;;;;;;;11.15;6.22;;;;;;;;;;6156088;23;20109;-81
2022/10/15 12:09:15;;;;;;;12.48;6.30;;;;;;;;;;6155571;23;20033;-81
2022/10/15 12:11:47;;;;;;;10.15;5.53;;;;;;;;;;6156516;23;20033;-81
2022/10/15 12:14:19;;;;;;;12.45;6.53;;;;;;;;;;6155135;23;20030;-81
2022/10/15 12:16:52;;;;;;;13.43;6.55;;;;;;;;;;6129618;23;20030;-81
2022/10/15 12:19:20;;;;;;;11.15;5.60;;;;;;;;;;6154450;23;20030;-81
2022/10/15 12:21:53;;;;;;;9.98;5.68;;;;;;;;;;6156141;23;20798;-81
2022/10/15 12:24:38;;;;;;;10.70;5.90;;;;;;;;;;6129710;23;20084;-81
2022/10/15 12:27:23;;;;;;;9.30;5.70;;;;;;;;;;6153741;23;20022;-81
2022/10/15 12:29:51;;;;;;;9.45;5.80;;;;;;;;;;6128391;23;20556;-82
2022/10/15 12:32:25;;;;;;;8.55;5.43;;;;;;;;;;6155923;23;20069;-82
2022/10/15 12:34:58;;;;;;;11.50;6.40;;;;;;;;;;6155998;23;20034;-82
2022/10/15 12:37:26;;;;;;;12.88;7.20;;;;;;;;;;6155829;23;20030;-81
2022/10/15 12:39:54;;;;;;;14.70;7.55;;;;;;;;;;6155140;23;20022;-80
2022/10/15 12:42:20;;;;;;;11.27;7.60;;;;;;;;;;6129334;23;20030;-81
2022/10/15 12:44:47;;;;;;;12.48;7.15;;;;;;;;;;6156092;23;20029;-81
2022/10/15 12:47:13;;;;;;;11.65;7.10;;;;;;;;;;6154496;23;20026;-81
2022/10/15 12:49:40;;;;;;;12.00;7.35;;;;;;;;;;6129730;23;20037;-81
2022/10/15 12:52:26;;;;;;;12.48;6.57;;;;;;;;;;6129325;23;20033;-81
2022/10/15 12:54:53;;;;;;;13.23;7.65;;;;;;;;;;6155798;23;20029;-81
2022/10/15 12:57:35;;;;;;;11.05;7.10;;;;;;;;;;6131500;23;20030;-81
2022/10/15 13:00:22;;;;;;;12.98;7.68;;;;;;;;;;6154356;23;20057;-81
2022/10/15 13:02:48;;;;;;;12.80;8.18;;;;;;;;;;6153095;23;20034;-80
2022/10/15 13:05:31;;;;;;;11.90;7.03;;;;;;;;;;6155289;23;20084;-81
2022/10/15 13:07:58;;;;;;;12.52;7.88;;;;;;;;;;6154577;23;20033;-81
2022/10/15 13:10:48;;;;;;;12.35;7.57;;;;;;;;;;6128774;23;20483;-80
2022/10/15 13:13:16;;;;;;;13.07;7.40;;;;;;;;;;6140758;23;20057;-81
2022/10/15 13:15:49;;;;;;;11.02;7.10;;;;;;;;;;6129987;23;20026;-81
2022/10/15 13:18:21;;;;;;;10.43;6.90;;;;;;;;;;6155441;23;20038;-82
2022/10/15 13:20:49;;;;;;;10.90;7.05;;;;;;;;;;6156850;23;20479;-82
2022/10/15 13:23:17;;;;;;;11.50;6.75;;;;;;;;;;6129434;23;20014;-81
2022/10/15 13:26:11;;;;;;;11.87;6.93;;;;;;;;;;6155520;23;20367;-81
2022/10/15 13:28:40;;;;;;;9.38;6.28;;;;;;;;;;6155420;23;20238;-82
2022/10/15 13:31:27;;;;;;;10.38;6.70;;;;;;;;;;6156113;23;20030;-80
2022/10/15 13:34:01;;;;;;;11.07;6.32;;;;;;;;;;6155421;23;20809;-81
2022/10/15 13:36:32;;;;;;;9.77;6.35;;;;;;;;;;6129409;23;20105;-80
2022/10/15 13:39:04;;;;;;;11.98;6.28;;;;;;;;;;6153949;23;20030;-80
2022/10/15 13:41:39;;;;;;;9.57;5.32;;;;;;;;;;6129057;23;20029;-80
2022/10/15 13:44:05;;;;;;;10.13;6.28;;;;;;;;;;6154706;23;20491;-80
2022/10/15 13:46:34;;;;;;;8.15;5.53;;;;;;;;;;6153509;23;20033;-81
2022/10/15 13:49:03;;;;;;;10.00;6.03;;;;;;;;;;6128746;23;20033;-79
2022/10/15 13:51:36;;;;;;;8.80;6.00;;;;;;;;;;6154507;23;20033;-81
2022/10/15 13:54:07;;;;;;;10.45;6.07;;;;;;;;;;6153193;23;20030;-81
2022/10/15 13:56:33;;;;;;;8.50;5.38;;;;;;;;;;6127898;23;20041;-80
2022/10/15 13:59:00;;;;;;;8.52;5.68;;;;;;;;;;6127356;23;20097;-81
2022/10/15 14:01:30;;;;;;;11.25;5.97;;;;;;;;;;6154313;23;20042;-80
2022/10/15 14:03:58;;;;;;;9.90;6.28;;;;;;;;;;6153835;23;20475;-81
2022/10/15 14:06:28;;;;;;;14.23;6.38;;;;;;;;;;6153837;23;20033;-81
2022/10/15 14:08:55;;;;;;;;;;;;;;;;;;6153235;23;20513;-81
2022/10/15 14:11:21;;;;;;;11.38;6.43;;;;;;;;;;6182863;23;47279;-81
2022/10/15 14:13:48;;;;;;;11.68;7.32;;;;;;;;;;6184234;23;20026;-81
2022/10/15 14:16:14;;;;;;;16.77;11.40;;;;;;;;;;6184621;23;20029;-80
2022/10/15 14:18:46;;;;;;;13.63;8.25;;;;;;;;;;6181545;23;20035;-80
2022/10/15 14:21:17;;;;;;;10.43;7.07;;;;;;;;;;6184850;23;20024;-81
2022/10/15 14:23:44;;;;;;;6.90;4.03;;;;;;;;;;6184672;23;20021;-81
2022/10/15 14:26:10;;;;;;;7.15;4.20;;;;;;;;;;6184514;23;20032;-81
2022/10/15 14:28:38;;;;;;;6.97;4.00;;;;;;;;;;6184060;23;20025;-81
2022/10/15 14:31:04;;;;;;;6.13;3.63;;;;;;;;;;6184794;23;20084;-81